Time;durP1;ratioP1;P1;durP2;ratioP2;P2;SDS_P1;SDS_P2;PMS_P1;PMS_P2;Temp;Humidity;BMP_temperature;BMP_pressure;BME280_temperature;BME280_humidity;BME280_pressure;Samples;Min_cycle;Max_cycle;Signal;HPM_P1;HPM_P2
2021/05/04 00:01:09;;;;;;;6.43;3.80;;;3.60;99.90;;;;;;5062234;28;20490;-81
2021/05/04 00:03:35;;;;;;;5.20;4.10;;;3.70;99.90;;;;;;5080634;28;20728;-81
2021/05/04 00:06:01;;;;;;;4.47;4.07;;;3.70;99.90;;;;;;5061595;28;20169;-82
2021/05/04 00:08:26;;;;;;;4.93;4.33;;;3.70;99.90;;;;;;5082288;28;20172;-81
2021/05/04 00:10:52;;;;;;;4.90;4.00;;;3.70;99.90;;;;;;5065686;28;20201;-81
2021/05/04 00:13:18;;;;;;;4.30;3.90;;;3.60;99.90;;;;;;5083792;28;20201;-81
2021/05/04 00:15:43;;;;;;;5.43;4.30;;;3.60;99.90;;;;;;5065710;28;20643;-81
2021/05/04 00:18:09;;;;;;;5.03;4.20;;;3.50;99.90;;;;;;5066822;28;20267;-81
2021/05/04 00:20:35;;;;;;;7.50;3.70;;;3.60;99.90;;;;;;5066485;28;20701;-81
2021/05/04 00:23:00;;;;;;;5.20;4.00;;;3.50;99.90;;;;;;5067502;28;20180;-81
2021/05/04 00:25:26;;;;;;;4.33;3.90;;;3.50;99.90;;;;;;5085005;28;20165;-81
2021/05/04 00:27:52;;;;;;;4.43;4.03;;;3.50;99.90;;;;;;5068215;28;20685;-81
2021/05/04 00:30:18;;;;;;;4.53;4.13;;;3.60;99.90;;;;;;5086264;28;20250;-81
2021/05/04 00:32:43;;;;;;;6.67;3.77;;;3.50;99.90;;;;;;5087550;28;20204;-81
2021/05/04 00:35:10;;;;;;;6.30;4.30;;;3.50;99.90;;;;;;5060389;28;20184;-81
2021/05/04 00:37:36;;;;;;;4.53;4.13;;;3.50;99.90;;;;;;5078761;28;20180;-81
2021/05/04 00:40:03;;;;;;;5.60;4.13;;;3.50;99.90;;;;;;5079366;28;20427;-81
2021/05/04 00:42:28;;;;;;;6.07;4.47;;;3.40;99.90;;;;;;5079170;28;20714;-81
2021/05/04 00:44:54;;;;;;;5.83;4.33;;;3.50;99.90;;;;;;5061003;28;20443;-81
2021/05/04 00:47:19;;;;;;;4.53;4.13;;;3.50;99.90;;;;;;5061063;28;20630;-81
2021/05/04 00:49:45;;;;;;;5.53;4.40;;;3.30;99.90;;;;;;5061808;28;20201;-81
2021/05/04 00:52:12;;;;;;;4.30;3.57;;;3.40;99.90;;;;;;5079989;28;20596;-81
2021/05/04 00:54:39;;;;;;;4.73;4.07;;;3.30;99.90;;;;;;5060700;28;20267;-81
2021/05/04 00:57:07;;;;;;;4.37;3.70;;;3.40;99.90;;;;;;5079779;28;20403;-81
2021/05/04 00:59:34;;;;;;;4.97;4.20;;;3.30;99.90;;;;;;5079642;28;20431;-81
2021/05/04 01:02:00;;;;;;;4.00;3.60;;;3.30;99.90;;;;;;5079069;28;20482;-81
2021/05/04 01:04:26;;;;;;;5.17;4.03;;;3.20;99.90;;;;;;5079306;28;20908;-81
2021/05/04 01:06:52;;;;;;;4.37;3.90;;;3.20;99.90;;;;;;5079708;28;20169;-81
2021/05/04 01:09:18;;;;;;;6.13;4.00;;;3.10;99.90;;;;;;5061501;28;20411;-81
2021/05/04 01:11:46;;;;;;;8.50;4.00;;;3.00;99.90;;;;;;5079870;28;20200;-81
2021/05/04 01:14:12;;;;;;;4.20;3.80;;;3.00;99.90;;;;;;5060968;28;20423;-81
2021/05/04 01:16:54;;;;;;;4.57;3.93;;;2.90;99.90;;;;;;5061332;28;20419;-81
2021/05/04 01:19:21;;;;;;;3.87;3.53;;;3.00;99.90;;;;;;5061397;28;20415;-81
2021/05/04 01:21:47;;;;;;;3.60;3.27;;;3.00;99.90;;;;;;5061114;28;20481;-81
2021/05/04 01:24:14;;;;;;;4.70;3.73;;;3.00;99.90;;;;;;5079215;28;20404;-81
2021/05/04 01:26:41;;;;;;;3.50;3.00;;;3.00;99.90;;;;;;5061769;28;20172;-81
2021/05/04 01:29:07;;;;;;;4.83;3.90;;;3.10;99.90;;;;;;5060550;28;20506;-81
2021/05/04 01:31:33;;;;;;;4.77;3.60;;;3.00;99.90;;;;;;5060230;28;20505;-81
2021/05/04 01:33:59;;;;;;;6.57;3.47;;;3.20;99.90;;;;;;5061769;28;20182;-81
2021/05/04 01:36:25;;;;;;;6.03;3.50;;;3.10;99.90;;;;;;5079534;28;20634;-81
2021/05/04 01:38:51;;;;;;;6.17;3.67;;;3.00;99.90;;;;;;5061218;28;20479;-81
2021/05/04 01:41:16;;;;;;;6.20;3.30;;;3.10;99.90;;;;;;5078972;28;20201;-81
2021/05/04 01:43:42;;;;;;;4.70;3.73;;;3.20;99.90;;;;;;5061145;28;20271;-81
2021/05/04 01:46:08;;;;;;;3.83;3.43;;;3.20;99.90;;;;;;5078583;28;20173;-81
2021/05/04 01:48:34;;;;;;;3.97;3.57;;;3.20;99.90;;;;;;5058753;28;20177;-81
2021/05/04 01:51:00;;;;;;;4.60;3.60;;;3.30;99.90;;;;;;5058134;28;20207;-81
2021/05/04 01:53:26;;;;;;;4.80;3.63;;;3.20;99.90;;;;;;5076377;28;20403;-81
2021/05/04 01:55:52;;;;;;;4.73;3.37;;;3.10;99.90;;;;;;5057868;28;20184;-81
2021/05/04 01:58:18;;;;;;;3.40;3.07;;;3.10;99.90;;;;;;5076144;28;20581;-81
2021/05/04 02:00:44;;;;;;;5.30;3.13;;;3.10;99.90;;;;;;5057849;28;20220;-81
2021/05/04 02:03:10;;;;;;;4.03;3.63;;;3.10;99.90;;;;;;5057492;28;20450;-81
2021/05/04 02:05:35;;;;;;;3.40;3.00;;;3.10;99.90;;;;;;5075705;28;20410;-81
2021/05/04 02:08:01;;;;;;;3.87;3.40;;;3.00;99.90;;;;;;5079391;28;20175;-81
2021/05/04 02:10:27;;;;;;;5.27;4.00;;;3.00;99.90;;;;;;5079318;28;20227;-81
2021/05/04 02:12:52;;;;;;;4.10;3.70;;;2.90;99.90;;;;;;5060637;28;20188;-81
2021/05/04 02:15:18;;;;;;;4.60;3.67;;;2.90;99.90;;;;;;5061129;28;20204;-81
2021/05/04 02:17:44;;;;;;;4.10;3.60;;;2.90;99.90;;;;;;5060959;28;20653;-81
2021/05/04 02:20:10;;;;;;;4.93;3.63;;;2.80;99.90;;;;;;5061252;28;20208;-81
2021/05/04 02:22:36;;;;;;;3.77;3.17;;;2.80;99.90;;;;;;5078497;28;20243;-81
2021/05/04 02:25:04;;;;;;;4.73;3.80;;;2.80;99.90;;;;;;5060054;28;20411;-81
2021/05/04 02:27:29;;;;;;;4.47;3.50;;;2.80;99.90;;;;;;5060677;28;20987;-81
2021/05/04 02:29:56;;;;;;;5.23;3.47;;;2.70;99.90;;;;;;5060064;28;20430;-81
2021/05/04 02:32:22;;;;;;;3.60;3.20;;;2.70;99.90;;;;;;5059542;28;20232;-81
2021/05/04 02:34:48;;;;;;;3.93;3.30;;;2.80;99.90;;;;;;5077580;28;20384;-80
2021/05/04 02:37:14;;;;;;;5.17;3.73;;;2.70;99.90;;;;;;5077780;28;20169;-80
2021/05/04 02:39:39;;;;;;;3.83;3.47;;;2.70;99.90;;;;;;5076984;28;20185;-81
2021/05/04 02:42:05;;;;;;;5.50;3.83;;;2.70;99.90;;;;;;5059013;28;20247;-81
2021/05/04 02:44:31;;;;;;;4.10;3.40;;;2.60;99.90;;;;;;5058717;28;20176;-80
2021/05/04 02:46:58;;;;;;;4.07;3.70;;;2.60;99.90;;;;;;5058779;28;20416;-81
2021/05/04 02:49:23;;;;;;;4.77;3.93;;;2.50;99.90;;;;;;5064798;28;20177;-80
2021/05/04 02:51:49;;;;;;;5.00;4.00;;;2.60;99.90;;;;;;5076665;28;20423;-82
2021/05/04 02:54:15;;;;;;;3.80;3.17;;;2.50;99.90;;;;;;5084565;28;20188;-80
2021/05/04 02:56:41;;;;;;;8.53;3.73;;;2.50;99.90;;;;;;5082334;28;20192;-81
2021/05/04 02:59:06;;;;;;;3.87;3.47;;;2.60;99.90;;;;;;5063158;28;20623;-81
2021/05/04 03:01:32;;;;;;;3.97;3.57;;;2.50;99.90;;;;;;5062927;28;20251;-81
2021/05/04 03:03:57;;;;;;;4.90;3.80;;;2.30;99.90;;;;;;5063090;28;20177;-81
2021/05/04 03:06:23;;;;;;;4.27;3.63;;;2.40;99.90;;;;;;5081120;28;20180;-81
2021/05/04 03:08:49;;;;;;;4.30;3.50;;;2.10;99.90;;;;;;5063144;28;20200;-81
2021/05/04 03:11:14;;;;;;;5.10;3.27;;;2.20;99.90;;;;;;5063604;28;20265;-80
2021/05/04 03:13:40;;;;;;;5.17;3.70;;;2.10;99.90;;;;;;5063245;28;20215;-81
2021/05/04 03:16:06;;;;;;;4.50;4.10;;;2.10;99.90;;;;;;5081240;28;20203;-81
2021/05/04 03:18:31;;;;;;;4.10;3.70;;;2.10;99.90;;;;;;5080595;28;20177;-81
2021/05/04 03:20:57;;;;;;;5.30;3.53;;;1.90;99.90;;;;;;5081095;28;20219;-81
2021/05/04 03:23:23;;;;;;;4.57;3.87;;;1.80;99.90;;;;;;5062957;28;20177;-81
2021/05/04 03:25:50;;;;;;;5.70;4.07;;;1.90;99.90;;;;;;5081612;28;20179;-81
2021/05/04 03:28:16;;;;;;;4.87;3.97;;;2.00;99.90;;;;;;5080932;28;21056;-81
2021/05/04 03:30:43;;;;;;;4.40;4.00;;;1.90;99.90;;;;;;5081744;28;20458;-81
2021/05/04 03:33:08;;;;;;;5.80;3.93;;;2.10;99.90;;;;;;5082007;28;20422;-81
2021/05/04 03:35:34;;;;;;;5.23;4.20;;;2.10;99.90;;;;;;5062681;28;20423;-81
2021/05/04 03:38:01;;;;;;;3.90;3.50;;;2.00;99.90;;;;;;5063550;28;20710;-81
2021/05/04 03:40:28;;;;;;;3.40;3.10;;;2.00;99.90;;;;;;5081353;28;20201;-81
2021/05/04 03:42:53;;;;;;;5.87;4.07;;;2.10;99.90;;;;;;5082027;28;20439;-81
2021/05/04 03:45:19;;;;;;;4.43;4.03;;;2.10;99.90;;;;;;5080464;28;20796;-81
2021/05/04 03:47:46;;;;;;;6.57;3.87;;;2.20;99.90;;;;;;5076283;28;20176;-81
2021/05/04 03:50:16;;;;;;;5.40;3.87;;;2.20;99.90;;;;;;5061474;28;20200;-82
2021/05/04 03:52:42;;;;;;;4.30;3.70;;;2.20;99.90;;;;;;5064187;28;20396;-82
2021/05/04 03:55:10;;;;;;;4.37;3.97;;;2.30;99.90;;;;;;5063389;28;20913;-82
2021/05/04 03:57:36;;;;;;;3.67;3.37;;;2.40;99.90;;;;;;5063659;28;20192;-84
2021/05/04 04:00:05;;;;;;;4.10;3.70;;;2.40;99.90;;;;;;5064431;28;20435;-83
2021/05/04 04:02:30;;;;;;;4.30;3.50;;;2.40;99.90;;;;;;5084329;28;20165;-82
2021/05/04 04:04:56;;;;;;;3.30;3.00;;;2.50;99.90;;;;;;5066236;28;20991;-83
2021/05/04 04:07:21;;;;;;;3.77;3.30;;;2.60;99.90;;;;;;5066502;28;20244;-83
2021/05/04 04:09:47;;;;;;;4.47;3.07;;;2.50;99.90;;;;;;5067473;28;20654;-83
2021/05/04 04:12:13;;;;;;;4.20;3.40;;;2.60;99.90;;;;;;5068174;28;20181;-82
2021/05/04 04:14:39;;;;;;;4.10;3.20;;;2.70;99.90;;;;;;5066407;28;20177;-82
2021/05/04 04:17:04;;;;;;;4.50;3.50;;;2.70;99.90;;;;;;5083078;28;20236;-83
2021/05/04 04:19:30;;;;;;;4.23;3.20;;;2.80;99.90;;;;;;5064419;28;20197;-82
2021/05/04 04:21:56;;;;;;;3.87;3.40;;;3.00;99.90;;;;;;5065158;28;20208;-82
2021/05/04 04:24:22;;;;;;;3.77;3.20;;;3.30;99.90;;;;;;5083103;28;20171;-82
2021/05/04 04:26:47;;;;;;;9.27;2.90;;;3.50;99.90;;;;;;5064694;28;20169;-82
2021/05/04 04:29:13;;;;;;;3.83;3.13;;;3.90;99.90;;;;;;5063703;28;20180;-82
2021/05/04 04:31:39;;;;;;;2.70;2.50;;;4.50;99.90;;;;;;5064380;28;20181;-82
2021/05/04 04:34:04;;;;;;;4.07;2.60;;;5.10;99.90;;;;;;5082889;28;20169;-82
2021/05/04 04:36:30;;;;;;;2.57;2.37;;;5.70;99.90;;;;;;5064965;28;20533;-82
2021/05/04 04:38:56;;;;;;;3.33;2.80;;;6.20;99.90;;;;;;5083244;28;20172;-82
2021/05/04 04:41:21;;;;;;;3.47;2.70;;;6.40;99.90;;;;;;5082951;28;20205;-82
2021/05/04 04:43:47;;;;;;;3.63;2.80;;;6.50;99.90;;;;;;5082456;28;20251;-82
2021/05/04 04:46:12;;;;;;;4.20;2.70;;;6.60;99.90;;;;;;5082238;28;20224;-83
2021/05/04 04:48:38;;;;;;;4.53;3.00;;;6.80;99.90;;;;;;5064991;28;20841;-82
2021/05/04 04:51:04;;;;;;;6.07;2.90;;;6.90;99.90;;;;;;5082366;28;20203;-82
2021/05/04 04:53:30;;;;;;;2.60;2.40;;;7.10;99.90;;;;;;5081454;28;20173;-82
2021/05/04 04:55:55;;;;;;;2.77;2.50;;;7.30;99.90;;;;;;5081179;28;20187;-81
2021/05/04 04:58:21;;;;;;;3.53;2.67;;;7.40;99.90;;;;;;5064437;28;20180;-81
2021/05/04 05:00:46;;;;;;;3.60;2.40;;;7.60;99.90;;;;;;5082430;28;20564;-81
2021/05/04 05:03:12;;;;;;;6.87;3.80;;;7.70;99.90;;;;;;5082899;28;20210;-80
2021/05/04 05:05:38;;;;;;;2.97;2.10;;;7.80;99.90;;;;;;5082312;28;20173;-81
2021/05/04 05:08:04;;;;;;;2.50;2.30;;;8.00;99.90;;;;;;5064257;28;20173;-81
2021/05/04 05:10:32;;;;;;;3.07;2.50;;;8.20;99.90;;;;;;5076704;28;20227;-81
2021/05/04 05:12:58;;;;;;;2.67;2.17;;;8.30;99.90;;;;;;5083185;28;20177;-81
2021/05/04 05:15:24;;;;;;;3.23;2.30;;;8.40;99.90;;;;;;5066028;28;20431;-81
2021/05/04 05:17:50;;;;;;;3.27;1.90;;;8.50;99.90;;;;;;5083518;28;20410;-80
2021/05/04 05:20:15;;;;;;;2.63;2.00;;;8.50;99.90;;;;;;5065047;28;20260;-81
2021/05/04 05:22:44;;;;;;;3.17;2.20;;;8.60;99.90;;;;;;5060456;28;20535;-80
2021/05/04 05:25:11;;;;;;;2.47;1.60;;;8.70;99.90;;;;;;5077584;28;20200;-81
2021/05/04 05:27:36;;;;;;;2.73;2.13;;;8.90;99.90;;;;;;5059587;28;21031;-80
2021/05/04 05:30:08;;;;;;;2.90;2.10;;;9.00;99.90;;;;;;5058998;28;20220;-80
2021/05/04 05:32:36;;;;;;;3.73;2.33;;;9.10;99.90;;;;;;5076450;28;20161;-80
2021/05/04 05:35:04;;;;;;;5.70;2.43;;;9.20;99.90;;;;;;5057170;28;20173;-80
2021/05/04 05:37:29;;;;;;;3.23;2.10;;;9.20;99.90;;;;;;5056718;28;21157;-80
2021/05/04 05:39:55;;;;;;;2.10;1.90;;;9.30;99.90;;;;;;5057805;28;20305;-80
2021/05/04 05:42:21;;;;;;;5.00;2.33;;;9.30;99.90;;;;;;5062124;28;20211;-80
2021/05/04 05:44:47;;;;;;;2.13;1.87;;;9.30;99.90;;;;;;5080124;28;20176;-79
2021/05/04 05:47:12;;;;;;;2.40;2.20;;;9.30;99.90;;;;;;5080648;28;20289;-81
2021/05/04 05:49:39;;;;;;;2.87;2.47;;;9.40;99.20;;;;;;5080282;28;20185;-81
2021/05/04 05:52:05;;;;;;;2.53;1.77;;;9.50;99.30;;;;;;5080104;28;20314;-80
2021/05/04 05:54:31;;;;;;;3.77;2.13;;;9.50;98.60;;;;;;5079786;28;20407;-81
2021/05/04 05:56:57;;;;;;;2.50;1.80;;;9.60;97.70;;;;;;5078940;28;20179;-81
2021/05/04 05:59:23;;;;;;;1.67;1.57;;;9.70;98.10;;;;;;5061591;28;20641;-80
2021/05/04 06:01:49;;;;;;;3.97;2.27;;;9.80;97.80;;;;;;5072347;28;20216;-80
2021/05/04 06:04:15;;;;;;;2.57;2.13;;;9.80;97.40;;;;;;5077004;28;20209;-80
2021/05/04 06:06:40;;;;;;;3.17;2.00;;;9.90;97.10;;;;;;5100391;28;20467;-79
2021/05/04 06:09:06;;;;;;;3.77;2.10;;;10.00;96.00;;;;;;5085244;28;20174;-81
2021/05/04 06:11:32;;;;;;;2.70;2.27;;;10.00;96.10;;;;;;5101488;28;20207;-81
2021/05/04 06:13:58;;;;;;;3.30;2.00;;;10.20;95.20;;;;;;5080851;28;20165;-80
2021/05/04 06:16:23;;;;;;;2.07;1.80;;;10.30;94.30;;;;;;5066396;28;20556;-80
2021/05/04 06:18:49;;;;;;;4.17;2.20;;;10.40;94.70;;;;;;5085233;28;20173;-80
2021/05/04 06:21:15;;;;;;;1.93;1.80;;;10.50;94.20;;;;;;5083624;28;20361;-81
2021/05/04 06:23:40;;;;;;;4.10;1.90;;;10.60;93.50;;;;;;5082681;28;20169;-81
2021/05/04 06:26:06;;;;;;;3.27;2.37;;;10.60;93.30;;;;;;5083592;28;20592;-80
2021/05/04 06:28:33;;;;;;;2.53;1.90;;;10.70;93.30;;;;;;5083144;28;20534;-80
2021/05/04 06:30:59;;;;;;;3.10;1.93;;;10.80;93.10;;;;;;5065252;28;20207;-80
2021/05/04 06:33:25;;;;;;;4.10;2.00;;;10.80;93.50;;;;;;5083869;28;20248;-81
2021/05/04 06:35:50;;;;;;;5.43;2.07;;;10.90;92.90;;;;;;5083807;28;20643;-81
2021/05/04 06:38:18;;;;;;;3.23;2.17;;;11.00;92.30;;;;;;5084993;28;20185;-81
2021/05/04 06:40:46;;;;;;;2.17;1.80;;;11.10;91.50;;;;;;5067573;28;20702;-81
2021/05/04 06:43:12;;;;;;;3.53;1.77;;;11.20;92.30;;;;;;5066998;28;20693;-81
2021/05/04 06:45:38;;;;;;;3.50;1.83;;;11.30;91.70;;;;;;5067809;28;20177;-81
2021/05/04 06:48:04;;;;;;;2.47;1.80;;;11.40;91.80;;;;;;5085537;28;20176;-80
2021/05/04 06:50:30;;;;;;;3.80;2.30;;;11.40;91.50;;;;;;5066747;28;20632;-81
2021/05/04 06:52:56;;;;;;;2.80;1.87;;;11.40;91.80;;;;;;5066763;28;20181;-80
2021/05/04 06:55:21;;;;;;;3.50;2.10;;;11.40;91.90;;;;;;5067988;28;20177;-81
2021/05/04 06:57:47;;;;;;;5.17;1.80;;;11.50;91.50;;;;;;5086171;28;20183;-81
2021/05/04 07:00:13;;;;;;;3.33;2.00;;;11.50;90.20;;;;;;5086461;28;20199;-81
2021/05/04 07:02:39;;;;;;;3.30;1.73;;;11.70;90.60;;;;;;5085574;28;20662;-82
2021/05/04 07:05:06;;;;;;;3.07;1.80;;;11.80;89.80;;;;;;5068160;28;20174;-81
2021/05/04 07:07:32;;;;;;;2.80;1.60;;;12.00;88.60;;;;;;5085763;28;20177;-81
2021/05/04 07:09:59;;;;;;;3.00;1.70;;;12.10;88.70;;;;;;5085667;28;20226;-82
2021/05/04 07:12:24;;;;;;;3.63;1.93;;;12.30;87.10;;;;;;5085018;28;20182;-83
2021/05/04 07:14:50;;;;;;;2.97;2.10;;;12.40;86.40;;;;;;5066298;28;20196;-81
2021/05/04 07:17:15;;;;;;;4.30;1.70;;;12.30;85.20;;;;;;5086075;28;20194;-81
2021/05/04 07:19:41;;;;;;;1.90;1.37;;;12.30;84.90;;;;;;5085892;28;20204;-81
2021/05/04 07:22:09;;;;;;;3.13;1.70;;;12.20;83.00;;;;;;5067085;28;20269;-82
2021/05/04 07:24:36;;;;;;;3.10;1.77;;;12.30;84.60;;;;;;5067029;28;20176;-81
2021/05/04 07:27:02;;;;;;;4.53;1.63;;;12.30;83.60;;;;;;5067983;28;20189;-82
2021/05/04 07:29:27;;;;;;;1.73;1.50;;;12.50;83.60;;;;;;5067434;28;20608;-82
2021/05/04 07:31:53;;;;;;;2.23;1.73;;;12.50;81.80;;;;;;5086348;28;20179;-82
2021/05/04 07:34:19;;;;;;;2.50;1.90;;;12.50;82.90;;;;;;5085999;28;20177;-82
2021/05/04 07:36:45;;;;;;;2.47;1.60;;;12.60;82.30;;;;;;5086608;28;20177;-82
2021/05/04 07:39:10;;;;;;;2.60;1.70;;;12.60;82.80;;;;;;5067606;28;20231;-82
2021/05/04 07:41:36;;;;;;;4.17;1.70;;;12.60;82.40;;;;;;5067823;28;20607;-82
2021/05/04 07:44:03;;;;;;;2.87;1.60;;;12.60;82.00;;;;;;5085700;28;20203;-81
2021/05/04 07:46:29;;;;;;;3.33;1.77;;;12.70;82.00;;;;;;5067647;28;20184;-82
2021/05/04 07:48:55;;;;;;;1.60;1.40;;;12.60;79.70;;;;;;5067871;28;20235;-82
2021/05/04 07:51:21;;;;;;;2.20;1.50;;;12.70;80.00;;;;;;5085898;28;20200;-81
2021/05/04 07:53:48;;;;;;;3.03;2.20;;;12.80;79.90;;;;;;5070208;28;20196;-82
2021/05/04 07:56:14;;;;;;;3.77;2.00;;;12.90;78.70;;;;;;5063704;28;20196;-82
2021/05/04 07:58:40;;;;;;;3.50;1.90;;;13.00;79.60;;;;;;5082393;28;20177;-82
2021/05/04 08:01:07;;;;;;;1.87;1.77;;;13.10;78.30;;;;;;5063682;28;20208;-82
2021/05/04 08:03:36;;;;;;;2.23;1.80;;;13.20;78.90;;;;;;5062864;28;20177;-82
2021/05/04 08:06:02;;;;;;;1.80;1.50;;;13.10;77.30;;;;;;5081872;28;20173;-82
2021/05/04 08:08:28;;;;;;;1.73;1.30;;;13.00;76.80;;;;;;5064170;28;20177;-81
2021/05/04 08:10:54;;;;;;;3.03;1.77;;;13.00;77.30;;;;;;5063363;28;20208;-81
2021/05/04 08:13:20;;;;;;;1.90;1.50;;;13.10;76.40;;;;;;5061910;28;20176;-81
2021/05/04 08:15:48;;;;;;;2.80;1.60;;;13.10;76.00;;;;;;5062845;28;20184;-81
2021/05/04 08:18:15;;;;;;;3.33;1.80;;;13.10;76.60;;;;;;5064182;28;20173;-82
2021/05/04 08:20:51;;;;;;;2.77;1.53;;;13.10;75.80;;;;;;5062206;28;20299;-81
2021/05/04 08:23:17;;;;;;;2.10;1.63;;;13.00;75.20;;;;;;5082873;28;20167;-82
2021/05/04 08:25:43;;;;;;;2.57;1.50;;;13.20;75.70;;;;;;5066443;28;20207;-82
2021/05/04 08:28:09;;;;;;;1.30;1.20;;;13.40;74.70;;;;;;5083398;28;20173;-82
2021/05/04 08:30:35;;;;;;;1.60;1.50;;;13.50;74.40;;;;;;5083902;28;20196;-82
2021/05/04 08:33:00;;;;;;;4.57;1.70;;;13.60;73.70;;;;;;5083669;28;20177;-81
2021/05/04 08:35:26;;;;;;;2.80;1.73;;;13.50;73.50;;;;;;5065988;28;20267;-81
2021/05/04 08:37:54;;;;;;;1.80;1.43;;;13.50;71.80;;;;;;5083795;28;20182;-81
2021/05/04 08:40:20;;;;;;;2.87;1.60;;;13.60;73.20;;;;;;5066398;28;20255;-81
2021/05/04 08:42:46;;;;;;;2.07;1.50;;;13.60;70.10;;;;;;5084262;28;20176;-81
2021/05/04 08:45:14;;;;;;;1.60;1.50;;;13.50;69.40;;;;;;5066577;28;20177;-81
2021/05/04 08:47:42;;;;;;;5.20;2.07;;;13.50;68.90;;;;;;5083906;28;20506;-81
2021/05/04 08:50:09;;;;;;;2.73;1.70;;;13.70;70.90;;;;;;5067255;28;20217;-81
2021/05/04 08:52:35;;;;;;;2.23;1.60;;;13.90;68.70;;;;;;5066724;28;20191;-82
2021/05/04 08:55:01;;;;;;;1.73;1.47;;;14.00;66.90;;;;;;5065776;28;20523;-81
2021/05/04 08:57:27;;;;;;;5.47;1.73;;;14.30;66.60;;;;;;5065781;28;20172;-82
2021/05/04 08:59:53;;;;;;;2.57;1.37;;;14.10;66.30;;;;;;5063178;28;20203;-81
2021/05/04 09:02:22;;;;;;;3.50;1.47;;;14.20;65.30;;;;;;5060163;28;20201;-81
2021/05/04 09:04:55;;;;;;;1.50;1.40;;;14.10;65.30;;;;;;5077432;28;20222;-81
2021/05/04 09:07:27;;;;;;;1.43;1.20;;;14.20;64.20;;;;;;5058835;28;20165;-81
2021/05/04 09:13:03;;;;;;;1.87;1.50;;;14.30;63.50;;;;;;5077257;28;20638;-81
2021/05/04 09:21:31;;;;;;;3.13;1.43;;;14.00;62.00;;;;;;5078953;28;20213;-80
2021/05/04 09:23:58;;;;;;;1.50;1.40;;;14.10;62.40;;;;;;5092633;28;20145;-80
2021/05/04 09:26:35;;;;;;;2.40;1.53;;;14.10;61.70;;;;;;5081765;28;20161;-81
2021/05/04 09:29:08;;;;;;;2.40;1.60;;;14.10;63.80;;;;;;5079212;28;20181;-81
2021/05/04 09:31:36;;;;;;;3.17;1.50;;;14.30;62.90;;;;;;5083155;28;20173;-81
2021/05/04 09:34:13;;;;;;;1.83;1.27;;;14.20;61.70;;;;;;5063271;28;20184;-80
2021/05/04 09:36:48;;;;;;;4.13;1.50;;;14.20;63.30;;;;;;5063575;28;20176;-81
2021/05/04 09:39:27;;;;;;;3.37;1.50;;;14.40;62.50;;;;;;5080978;28;20259;-81
2021/05/04 09:41:54;;;;;;;2.13;1.33;;;14.50;62.40;;;;;;5081072;28;20681;-81
2021/05/04 09:44:46;;;;;;;2.30;1.33;;;14.30;61.50;;;;;;5080448;28;20173;-81
2021/05/04 09:47:12;;;;;;;3.60;1.30;;;14.40;61.90;;;;;;5062760;28;20262;-81
2021/05/04 09:49:40;;;;;;;1.60;1.30;;;14.30;62.90;;;;;;5063560;28;20197;-81
2021/05/04 09:52:17;;;;;;;7.43;1.60;;;14.10;62.90;;;;;;5080821;28;20181;-80
2021/05/04 09:54:45;;;;;;;4.40;1.80;;;14.10;63.20;;;;;;5063364;28;20183;-81
2021/05/04 09:57:30;;;;;;;3.20;1.23;;;14.20;63.50;;;;;;5082293;28;20235;-81
2021/05/04 09:59:56;;;;;;;1.90;1.27;;;14.10;63.10;;;;;;5065011;28;20205;-81
2021/05/04 10:02:23;;;;;;;1.77;1.20;;;14.20;64.30;;;;;;5064223;28;20682;-81
2021/05/04 10:04:51;;;;;;;1.93;1.10;;;14.20;64.40;;;;;;5066339;28;20193;-81
2021/05/04 10:07:18;;;;;;;2.70;1.30;;;14.40;65.80;;;;;;5082161;28;20175;-81
2021/05/04 10:09:44;;;;;;;1.60;1.50;;;14.50;64.90;;;;;;5083313;28;20208;-80
2021/05/04 10:12:12;;;;;;;1.23;1.00;;;14.50;65.20;;;;;;5083154;28;20181;-80
2021/05/04 10:14:41;;;;;;;1.37;1.10;;;14.40;65.90;;;;;;5065564;28;20184;-80
2021/05/04 10:17:10;;;;;;;1.47;1.30;;;14.50;65.50;;;;;;5083294;28;20184;-81
2021/05/04 10:19:37;;;;;;;2.07;1.20;;;14.40;65.40;;;;;;5079089;28;20201;-81
2021/05/04 10:22:05;;;;;;;2.13;1.30;;;14.40;65.50;;;;;;5060277;28;20212;-81
2021/05/04 10:24:34;;;;;;;1.37;1.27;;;14.40;65.80;;;;;;5078347;28;20183;-81
2021/05/04 10:27:04;;;;;;;3.57;1.50;;;14.30;66.30;;;;;;5079708;28;20177;-81
2021/05/04 10:29:31;;;;;;;1.30;1.20;;;14.30;65.60;;;;;;5064172;28;20208;-81
2021/05/04 10:31:59;;;;;;;4.63;2.73;;;14.40;66.80;;;;;;5082556;28;20208;-81
2021/05/04 10:34:26;;;;;;;1.67;1.37;;;14.60;66.50;;;;;;5066895;28;20181;-81
2021/05/04 10:36:53;;;;;;;1.43;1.20;;;14.50;66.10;;;;;;5063738;28;20604;-81
2021/05/04 10:39:39;;;;;;;2.53;1.40;;;14.50;65.70;;;;;;5065130;28;20249;-81
2021/05/04 10:42:07;;;;;;;2.20;1.70;;;14.30;66.30;;;;;;5066819;28;20239;-81
2021/05/04 10:45:06;;;;;;;1.17;1.07;;;14.40;67.00;;;;;;5085167;28;20177;-81
2021/05/04 10:47:43;;;;;;;1.83;1.50;;;14.30;67.30;;;;;;5037299;28;20193;-81
2021/05/04 10:50:11;;;;;;;6.87;2.07;;;14.40;66.70;;;;;;5063639;28;20200;-82
2021/05/04 10:52:57;;;;;;;1.83;1.40;;;14.30;66.40;;;;;;5085240;28;20558;-81
2021/05/04 10:55:27;;;;;;;2.93;2.73;;;14.30;66.90;;;;;;5065441;28;20177;-83
2021/05/04 10:58:02;;;;;;;3.27;1.50;;;14.30;67.80;;;;;;5066981;28;20201;-81
2021/05/04 11:03:34;;;;;;;1.90;1.63;;;14.30;67.30;;;;;;5067273;28;20231;-81
2021/05/04 11:06:00;;;;;;;1.47;1.30;;;14.30;67.10;;;;;;5049317;28;20177;-81
2021/05/04 11:08:49;;;;;;;1.83;1.70;;;14.30;67.60;;;;;;5066257;28;20200;-81
2021/05/04 11:11:22;;;;;;;4.30;1.70;;;14.50;66.70;;;;;;5066577;28;20207;-81
2021/05/04 11:13:52;;;;;;;2.23;1.77;;;14.60;67.70;;;;;;5048601;28;20189;-80
2021/05/04 11:16:36;;;;;;;2.97;1.80;;;14.60;67.50;;;;;;5066313;28;20659;-81
2021/05/04 11:19:06;;;;;;;2.83;1.40;;;14.60;66.70;;;;;;5047688;28;20236;-80
2021/05/04 11:21:42;;;;;;;2.10;1.70;;;14.70;67.20;;;;;;5066375;28;20217;-81
2021/05/04 11:24:21;;;;;;;9.13;2.20;;;14.70;66.80;;;;;;5049395;28;20189;-80
2021/05/04 11:26:58;;;;;;;2.23;1.60;;;15.00;67.60;;;;;;5049649;28;20219;-80
2021/05/04 11:29:38;;;;;;;1.43;1.30;;;15.20;68.00;;;;;;5079734;28;20173;-80
2021/05/04 11:32:27;;;;;;;4.20;1.77;;;15.40;68.30;;;;;;5077586;28;20180;-79
2021/05/04 11:34:55;;;;;;;3.70;1.50;;;15.20;66.40;;;;;;5060596;28;20192;-80
2021/05/04 11:37:24;;;;;;;3.17;1.80;;;15.10;67.60;;;;;;5059896;28;20658;-80
2021/05/04 11:39:59;;;;;;;3.70;1.60;;;15.20;67.60;;;;;;5061272;28;20565;-80
2021/05/04 11:42:41;;;;;;;3.60;1.37;;;15.30;66.50;;;;;;5064227;28;20200;-80
2021/05/04 11:45:18;;;;;;;3.53;2.20;;;15.30;67.70;;;;;;5081152;28;20245;-80
2021/05/04 11:47:48;;;;;;;2.20;1.53;;;15.30;64.40;;;;;;5063156;28;20196;-79
2021/05/04 11:50:22;;;;;;;1.70;1.50;;;15.40;65.40;;;;;;5080194;28;20193;-79
2021/05/04 11:52:57;;;;;;;2.53;1.77;;;15.50;64.70;;;;;;5061736;28;20200;-80
2021/05/04 11:55:24;;;;;;;1.63;1.33;;;15.60;63.30;;;;;;5063456;28;20183;-80
2021/05/04 11:58:00;;;;;;;2.70;1.60;;;15.60;63.20;;;;;;5080144;28;20173;-80
2021/05/04 12:00:28;;;;;;;4.03;1.90;;;15.70;64.40;;;;;;5060754;28;20567;-81
2021/05/04 12:02:54;;;;;;;2.10;1.70;;;15.90;63.90;;;;;;5079249;28;20173;-78
2021/05/04 12:05:28;;;;;;;2.37;1.60;;;16.10;63.00;;;;;;5082627;28;20173;-79
2021/05/04 12:07:54;;;;;;;4.97;1.57;;;16.30;61.30;;;;;;5095379;28;20181;-79
2021/05/04 12:10:24;;;;;;;3.80;1.70;;;16.50;61.70;;;;;;5096624;28;20176;-80
2021/05/04 12:12:59;;;;;;;1.87;1.60;;;16.30;62.00;;;;;;5082221;28;20184;-80
2021/05/04 12:15:26;;;;;;;4.83;1.80;;;16.70;61.70;;;;;;5083334;28;20240;-80
2021/05/04 12:17:58;;;;;;;2.33;1.67;;;17.20;60.90;;;;;;5082156;28;20173;-80
2021/05/04 12:20:26;;;;;;;3.00;1.83;;;17.80;60.30;;;;;;5063105;28;20311;-84
2021/05/04 12:22:58;;;;;;;3.10;1.70;;;17.80;61.20;;;;;;5064810;28;20184;-78
2021/05/04 12:25:37;;;;;;;2.07;1.67;;;18.00;61.10;;;;;;5082607;28;20183;-82
2021/05/04 12:28:04;;;;;;;5.63;1.93;;;18.40;59.70;;;;;;5065356;28;20176;-81
2021/05/04 12:30:30;;;;;;;2.80;2.07;;;18.00;58.70;;;;;;5064492;28;20284;-79
2021/05/04 12:32:56;;;;;;;2.30;1.57;;;17.90;58.80;;;;;;5061474;28;20204;-79
2021/05/04 12:35:32;;;;;;;6.77;2.13;;;18.00;58.70;;;;;;5063262;28;20177;-81
2021/05/04 12:38:09;;;;;;;12.80;2.40;;;17.70;58.60;;;;;;5082681;28;20181;-81
2021/05/04 12:40:36;;;;;;;5.30;2.50;;;17.90;58.40;;;;;;5063200;28;20296;-80
2021/05/04 12:43:14;;;;;;;2.67;1.60;;;18.00;58.90;;;;;;5061677;28;20236;-80
2021/05/04 12:46:05;;;;;;;10.27;2.40;;;17.80;58.90;;;;;;5060589;28;20580;-80
2021/05/04 12:48:32;;;;;;;1.70;1.60;;;17.70;59.10;;;;;;5078970;28;20192;-82
2021/05/04 12:51:08;;;;;;;12.93;2.13;;;17.50;59.00;;;;;;5061701;28;20276;-80
2021/05/04 12:53:37;;;;;;;3.77;2.07;;;17.90;59.30;;;;;;5082981;28;20188;-80
2021/05/04 12:56:09;;;;;;;4.77;1.70;;;17.70;58.40;;;;;;5064999;28;20186;-80
2021/05/04 12:59:07;;;;;;;11.43;1.80;;;17.60;58.40;;;;;;5064649;28;20182;-80
2021/05/04 13:01:41;;;;;;;1.40;1.23;;;17.40;58.60;;;;;;5066504;28;20213;-80
2021/05/04 13:04:28;;;;;;;3.40;1.60;;;17.20;58.10;;;;;;5083962;28;20283;-80
2021/05/04 13:07:04;;;;;;;3.33;1.67;;;17.00;57.90;;;;;;5066054;28;20174;-80